sensor_id;sensor_type;location;lat;lon;timestamp;pressure;altitude;pressure_sealevel;temperature;humidity
15604;BME280;7902;49.042;9.092;2022-08-25T00:01:10;99163.00;;;25.88;46.59
15604;BME280;7902;49.042;9.092;2022-08-25T00:03:40;99166.72;;;25.81;46.80
15604;BME280;7902;49.042;9.092;2022-08-25T00:06:07;99170.66;;;25.78;46.78
15604;BME280;7902;49.042;9.092;2022-08-25T00:08:33;99165.91;;;25.73;46.72
15604;BME280;7902;49.042;9.092;2022-08-25T00:11:00;99159.28;;;25.69;46.92
15604;BME280;7902;49.042;9.092;2022-08-25T00:13:27;99152.03;;;25.63;47.06
15604;BME280;7902;49.042;9.092;2022-08-25T00:15:53;99163.00;;;25.62;47.13
15604;BME280;7902;49.042;9.092;2022-08-25T00:18:19;99147.28;;;25.65;47.17
15604;BME280;7902;49.042;9.092;2022-08-25T00:20:46;99150.59;;;25.61;47.39
15604;BME280;7902;49.042;9.092;2022-08-25T00:23:12;99151.00;;;25.64;47.00
15604;BME280;7902;49.042;9.092;2022-08-25T00:25:38;99150.19;;;25.64;47.13
15604;BME280;7902;49.042;9.092;2022-08-25T00:28:04;99146.06;;;25.61;47.09
15604;BME280;7902;49.042;9.092;2022-08-25T00:30:30;99143.53;;;25.66;46.95
15604;BME280;7902;49.042;9.092;2022-08-25T00:32:56;99148.53;;;25.69;46.66
15604;BME280;7902;49.042;9.092;2022-08-25T00:35:23;99146.47;;;25.65;46.80
15604;BME280;7902;49.042;9.092;2022-08-25T00:37:49;99158.25;;;25.64;46.90
15604;BME280;7902;49.042;9.092;2022-08-25T00:40:15;99149.78;;;25.60;46.94
15604;BME280;7902;49.042;9.092;2022-08-25T00:42:41;99159.03;;;25.51;47.39
15604;BME280;7902;49.042;9.092;2022-08-25T00:45:08;99162.75;;;25.37;47.65
15604;BME280;7902;49.042;9.092;2022-08-25T00:47:35;99156.13;;;25.33;47.78
15604;BME280;7902;49.042;9.092;2022-08-25T00:50:05;99156.31;;;25.38;47.82
15604;BME280;7902;49.042;9.092;2022-08-25T00:52:37;99158.38;;;25.23;47.86
15604;BME280;7902;49.042;9.092;2022-08-25T00:55:27;99154.22;;;25.14;48.39
15604;BME280;7902;49.042;9.092;2022-08-25T00:57:57;99163.31;;;25.13;48.27
15604;BME280;7902;49.042;9.092;2022-08-25T01:00:32;99150.47;;;25.08;48.33
15604;BME280;7902;49.042;9.092;2022-08-25T01:02:58;99151.47;;;25.01;48.59
15604;BME280;7902;49.042;9.092;2022-08-25T01:05:26;99155.81;;;25.02;48.59
15604;BME280;7902;49.042;9.092;2022-08-25T01:07:53;99152.72;;;24.98;48.65
15604;BME280;7902;49.042;9.092;2022-08-25T01:10:21;99153.38;;;25.00;48.75
15604;BME280;7902;49.042;9.092;2022-08-25T01:12:48;99153.75;;;24.90;49.04
15604;BME280;7902;49.042;9.092;2022-08-25T01:15:15;99151.25;;;24.89;48.74
15604;BME280;7902;49.042;9.092;2022-08-25T01:17:50;99148.97;;;24.92;48.75
15604;BME280;7902;49.042;9.092;2022-08-25T01:20:19;99139.91;;;24.94;48.72
15604;BME280;7902;49.042;9.092;2022-08-25T01:22:47;99143.19;;;24.96;48.74
15604;BME280;7902;49.042;9.092;2022-08-25T01:27:54;99141.56;;;25.01;48.25
15604;BME280;7902;49.042;9.092;2022-08-25T01:30:21;99132.06;;;24.99;48.23
15604;BME280;7902;49.042;9.092;2022-08-25T01:32:47;99150.00;;;24.91;48.63
15604;BME280;7902;49.042;9.092;2022-08-25T01:35:13;99145.44;;;24.85;48.80
15604;BME280;7902;49.042;9.092;2022-08-25T01:37:40;99138.38;;;24.84;48.68
15604;BME280;7902;49.042;9.092;2022-08-25T01:40:06;99137.94;;;24.74;49.00
15604;BME280;7902;49.042;9.092;2022-08-25T01:45:26;99145.16;;;24.74;48.75
15604;BME280;7902;49.042;9.092;2022-08-25T01:47:52;99147.00;;;24.73;48.90
15604;BME280;7902;49.042;9.092;2022-08-25T01:50:18;99145.13;;;24.67;49.32
15604;BME280;7902;49.042;9.092;2022-08-25T01:55:43;99145.97;;;24.68;48.94
15604;BME280;7902;49.042;9.092;2022-08-25T01:58:43;99142.84;;;24.64;49.23
15604;BME280;7902;49.042;9.092;2022-08-25T02:01:14;99144.09;;;24.62;49.24
15604;BME280;7902;49.042;9.092;2022-08-25T02:03:44;99148.00;;;24.59;49.47
15604;BME280;7902;49.042;9.092;2022-08-25T02:06:12;99152.97;;;24.62;49.25
15604;BME280;7902;49.042;9.092;2022-08-25T02:08:39;99149.84;;;24.59;49.29
15604;BME280;7902;49.042;9.092;2022-08-25T02:11:05;99148.63;;;24.61;49.42
15604;BME280;7902;49.042;9.092;2022-08-25T02:13:31;99153.34;;;24.59;49.19
15604;BME280;7902;49.042;9.092;2022-08-25T02:15:58;99147.38;;;24.57;49.49
15604;BME280;7902;49.042;9.092;2022-08-25T02:18:25;99155.81;;;24.54;49.78
15604;BME280;7902;49.042;9.092;2022-08-25T02:20:51;99152.47;;;24.45;49.88
15604;BME280;7902;49.042;9.092;2022-08-25T02:23:17;99145.06;;;24.47;49.56
15604;BME280;7902;49.042;9.092;2022-08-25T02:25:43;99144.41;;;24.39;49.94
15604;BME280;7902;49.042;9.092;2022-08-25T02:28:09;99156.16;;;24.38;49.74
15604;BME280;7902;49.042;9.092;2022-08-25T02:30:38;99154.25;;;24.32;50.23
15604;BME280;7902;49.042;9.092;2022-08-25T02:33:04;99151.38;;;24.33;49.96
15604;BME280;7902;49.042;9.092;2022-08-25T02:35:31;99144.78;;;24.36;49.85
15604;BME280;7902;49.042;9.092;2022-08-25T02:37:57;99145.19;;;24.33;50.18
15604;BME280;7902;49.042;9.092;2022-08-25T02:40:23;99141.25;;;24.29;50.35
15604;BME280;7902;49.042;9.092;2022-08-25T02:42:49;99143.28;;;24.27;50.31
15604;BME280;7902;49.042;9.092;2022-08-25T02:45:16;99143.69;;;24.24;50.65
15604;BME280;7902;49.042;9.092;2022-08-25T02:47:44;99139.75;;;24.20;50.44
15604;BME280;7902;49.042;9.092;2022-08-25T02:50:10;99134.38;;;24.20;50.34
15604;BME280;7902;49.042;9.092;2022-08-25T02:52:36;99128.19;;;24.19;50.25
15604;BME280;7902;49.042;9.092;2022-08-25T02:55:05;99126.06;;;24.15;50.69
15604;BME280;7902;49.042;9.092;2022-08-25T02:57:31;99135.53;;;24.11;50.80
15604;BME280;7902;49.042;9.092;2022-08-25T02:59:57;99130.97;;;24.11;50.63
15604;BME280;7902;49.042;9.092;2022-08-25T03:02:25;99130.34;;;24.09;50.58
15604;BME280;7902;49.042;9.092;2022-08-25T03:04:52;99134.25;;;24.06;50.69
15604;BME280;7902;49.042;9.092;2022-08-25T03:07:19;99135.28;;;24.05;51.05
15604;BME280;7902;49.042;9.092;2022-08-25T03:09:46;99132.59;;;24.05;50.77
15604;BME280;7902;49.042;9.092;2022-08-25T03:12:12;99134.81;;;24.02;50.92
15604;BME280;7902;49.042;9.092;2022-08-25T03:14:39;99126.34;;;23.98;50.75
15604;BME280;7902;49.042;9.092;2022-08-25T03:17:06;99122.84;;;23.98;50.92
15604;BME280;7902;49.042;9.092;2022-08-25T03:19:33;99125.50;;;23.91;51.14
15604;BME280;7902;49.042;9.092;2022-08-25T03:21:59;99125.03;;;23.88;51.48
15604;BME280;7902;49.042;9.092;2022-08-25T03:24:26;99129.13;;;23.84;51.41
15604;BME280;7902;49.042;9.092;2022-08-25T03:26:53;99123.75;;;23.77;51.73
15604;BME280;7902;49.042;9.092;2022-08-25T03:29:27;99128.69;;;23.80;51.56
15604;BME280;7902;49.042;9.092;2022-08-25T03:31:55;99126.19;;;23.72;51.70
15604;BME280;7902;49.042;9.092;2022-08-25T03:34:23;99122.84;;;23.70;51.61
15604;BME280;7902;49.042;9.092;2022-08-25T03:36:51;99131.13;;;23.75;51.76
15604;BME280;7902;49.042;9.092;2022-08-25T03:39:18;99128.16;;;23.64;51.85
15604;BME280;7902;49.042;9.092;2022-08-25T03:41:45;99132.06;;;23.61;51.99
15604;BME280;7902;49.042;9.092;2022-08-25T03:44:12;99135.50;;;23.55;51.96
15604;BME280;7902;49.042;9.092;2022-08-25T03:46:44;99134.31;;;23.57;52.39
15604;BME280;7902;49.042;9.092;2022-08-25T03:49:18;99132.63;;;23.56;52.23
15604;BME280;7902;49.042;9.092;2022-08-25T03:51:46;99119.41;;;23.55;52.20
15604;BME280;7902;49.042;9.092;2022-08-25T03:54:21;99123.38;;;23.59;51.77
15604;BME280;7902;49.042;9.092;2022-08-25T03:56:47;99116.97;;;23.60;52.33
15604;BME280;7902;49.042;9.092;2022-08-25T03:59:13;99117.44;;;23.64;51.85
15604;BME280;7902;49.042;9.092;2022-08-25T04:01:41;99114.06;;;23.55;52.12
15604;BME280;7902;49.042;9.092;2022-08-25T04:04:09;99121.84;;;23.50;52.11
15604;BME280;7902;49.042;9.092;2022-08-25T04:06:37;99109.03;;;23.45;52.24
15604;BME280;7902;49.042;9.092;2022-08-25T04:09:03;99110.63;;;23.40;52.35
15604;BME280;7902;49.042;9.092;2022-08-25T04:11:29;99113.47;;;23.38;51.97
15604;BME280;7902;49.042;9.092;2022-08-25T04:13:56;99114.25;;;23.32;52.55
15604;BME280;7902;49.042;9.092;2022-08-25T04:16:25;99115.78;;;23.20;52.42
15604;BME280;7902;49.042;9.092;2022-08-25T04:18:53;99119.31;;;23.21;52.73
15604;BME280;7902;49.042;9.092;2022-08-25T04:21:20;99116.97;;;23.17;52.98
15604;BME280;7902;49.042;9.092;2022-08-25T04:23:48;99114.69;;;23.14;52.89
15604;BME280;7902;49.042;9.092;2022-08-25T04:26:18;99123.16;;;23.18;53.02
15604;BME280;7902;49.042;9.092;2022-08-25T04:28:45;99116.16;;;23.17;53.09
15604;BME280;7902;49.042;9.092;2022-08-25T04:31:13;99114.88;;;23.13;52.91
15604;BME280;7902;49.042;9.092;2022-08-25T04:33:42;99121.72;;;23.15;53.05
15604;BME280;7902;49.042;9.092;2022-08-25T04:36:09;99125.16;;;23.09;53.20
15604;BME280;7902;49.042;9.092;2022-08-25T04:38:38;99124.41;;;23.15;53.01
15604;BME280;7902;49.042;9.092;2022-08-25T04:41:05;99120.44;;;23.11;52.90
15604;BME280;7902;49.042;9.092;2022-08-25T04:43:33;99124.13;;;23.10;52.97
15604;BME280;7902;49.042;9.092;2022-08-25T04:46:05;99118.13;;;23.08;52.80
15604;BME280;7902;49.042;9.092;2022-08-25T04:48:32;99121.38;;;23.04;53.29
15604;BME280;7902;49.042;9.092;2022-08-25T04:51:03;99126.72;;;23.04;53.20
15604;BME280;7902;49.042;9.092;2022-08-25T04:53:31;99125.00;;;22.96;53.36
15604;BME280;7902;49.042;9.092;2022-08-25T04:55:57;99125.84;;;22.97;53.03
15604;BME280;7902;49.042;9.092;2022-08-25T04:58:23;99125.47;;;23.00;53.37
15604;BME280;7902;49.042;9.092;2022-08-25T05:00:49;99132.66;;;22.99;53.48
15604;BME280;7902;49.042;9.092;2022-08-25T05:03:14;99130.25;;;23.04;53.52
15604;BME280;7902;49.042;9.092;2022-08-25T05:05:40;99133.84;;;23.11;53.19
15604;BME280;7902;49.042;9.092;2022-08-25T05:08:06;99137.25;;;23.05;53.39
15604;BME280;7902;49.042;9.092;2022-08-25T05:10:33;99133.00;;;23.11;53.29
15604;BME280;7902;49.042;9.092;2022-08-25T05:12:58;99136.81;;;23.23;52.79
15604;BME280;7902;49.042;9.092;2022-08-25T05:15:25;99131.47;;;23.23;53.13
15604;BME280;7902;49.042;9.092;2022-08-25T05:18:15;99126.75;;;23.25;52.79
15604;BME280;7902;49.042;9.092;2022-08-25T05:20:41;99113.81;;;23.29;52.69
15604;BME280;7902;49.042;9.092;2022-08-25T05:23:07;99113.03;;;23.35;52.80
15604;BME280;7902;49.042;9.092;2022-08-25T05:25:33;99118.44;;;23.41;52.56
15604;BME280;7902;49.042;9.092;2022-08-25T05:27:59;99114.06;;;23.34;52.74
15604;BME280;7902;49.042;9.092;2022-08-25T05:30:26;99121.84;;;23.29;53.02
15604;BME280;7902;49.042;9.092;2022-08-25T05:32:52;99120.50;;;23.39;52.60
15604;BME280;7902;49.042;9.092;2022-08-25T05:35:18;99123.53;;;23.36;52.70
15604;BME280;7902;49.042;9.092;2022-08-25T05:37:45;99115.97;;;23.40;52.74
15604;BME280;7902;49.042;9.092;2022-08-25T05:40:12;99118.25;;;23.43;52.91
15604;BME280;7902;49.042;9.092;2022-08-25T05:42:38;99113.91;;;23.42;52.56
15604;BME280;7902;49.042;9.092;2022-08-25T05:45:05;99115.75;;;23.41;52.73
15604;BME280;7902;49.042;9.092;2022-08-25T05:47:31;99109.38;;;23.42;52.98
15604;BME280;7902;49.042;9.092;2022-08-25T05:49:57;99103.59;;;23.39;52.69
15604;BME280;7902;49.042;9.092;2022-08-25T05:52:26;99101.44;;;23.49;52.95
15604;BME280;7902;49.042;9.092;2022-08-25T05:54:52;99100.41;;;23.50;52.80
15604;BME280;7902;49.042;9.092;2022-08-25T05:57:18;99101.69;;;23.54;52.73
15604;BME280;7902;49.042;9.092;2022-08-25T05:59:44;99101.31;;;23.57;52.70
15604;BME280;7902;49.042;9.092;2022-08-25T06:02:10;99102.38;;;23.63;52.63
15604;BME280;7902;49.042;9.092;2022-08-25T06:04:54;99099.25;;;23.59;53.00
15604;BME280;7902;49.042;9.092;2022-08-25T06:07:21;99096.81;;;23.64;52.59
15604;BME280;7902;49.042;9.092;2022-08-25T06:09:47;99096.81;;;23.64;52.63
15604;BME280;7902;49.042;9.092;2022-08-25T06:12:15;99106.16;;;23.68;52.68
15604;BME280;7902;49.042;9.092;2022-08-25T06:14:41;99107.78;;;23.69;52.65
15604;BME280;7902;49.042;9.092;2022-08-25T06:17:07;99105.50;;;23.66;52.68
15604;BME280;7902;49.042;9.092;2022-08-25T06:19:33;99102.22;;;23.71;52.57
15604;BME280;7902;49.042;9.092;2022-08-25T06:21:59;99102.66;;;23.74;52.69
15604;BME280;7902;49.042;9.092;2022-08-25T06:24:26;99089.31;;;23.81;52.63
15604;BME280;7902;49.042;9.092;2022-08-25T06:26:52;99100.22;;;23.79;52.49
15604;BME280;7902;49.042;9.092;2022-08-25T06:29:19;99103.56;;;23.81;52.82
15604;BME280;7902;49.042;9.092;2022-08-25T06:31:45;99105.66;;;23.92;52.34
15604;BME280;7902;49.042;9.092;2022-08-25T06:34:12;99104.91;;;23.98;52.45
15604;BME280;7902;49.042;9.092;2022-08-25T06:36:39;99108.59;;;23.97;52.33
15604;BME280;7902;49.042;9.092;2022-08-25T06:39:05;99103.81;;;23.93;52.44
15604;BME280;7902;49.042;9.092;2022-08-25T06:41:31;99105.78;;;24.05;52.91
15604;BME280;7902;49.042;9.092;2022-08-25T06:43:57;99109.31;;;24.13;52.39
15604;BME280;7902;49.042;9.092;2022-08-25T06:46:25;99107.53;;;24.20;52.53
15604;BME280;7902;49.042;9.092;2022-08-25T06:48:52;99115.00;;;24.24;52.09
15604;BME280;7902;49.042;9.092;2022-08-25T06:51:20;99110.25;;;24.26;52.44
15604;BME280;7902;49.042;9.092;2022-08-25T06:53:48;99104.72;;;24.34;52.27
15604;BME280;7902;49.042;9.092;2022-08-25T06:56:18;99102.91;;;24.41;52.02
15604;BME280;7902;49.042;9.092;2022-08-25T06:58:45;99103.31;;;24.45;52.07
15604;BME280;7902;49.042;9.092;2022-08-25T07:01:20;99104.34;;;24.44;52.12
15604;BME280;7902;49.042;9.092;2022-08-25T07:03:49;99107.66;;;24.46;51.83
15604;BME280;7902;49.042;9.092;2022-08-25T07:06:16;99104.41;;;24.57;51.26
15604;BME280;7902;49.042;9.092;2022-08-25T07:08:44;99096.78;;;24.61;51.06
15604;BME280;7902;49.042;9.092;2022-08-25T07:11:10;99092.84;;;24.63;51.52
15604;BME280;7902;49.042;9.092;2022-08-25T07:13:37;99084.19;;;24.68;51.90
15604;BME280;7902;49.042;9.092;2022-08-25T07:16:04;99086.50;;;24.71;51.71
15604;BME280;7902;49.042;9.092;2022-08-25T07:18:31;99086.50;;;24.77;51.73
15604;BME280;7902;49.042;9.092;2022-08-25T07:20:57;99083.25;;;24.88;50.89
15604;BME280;7902;49.042;9.092;2022-08-25T07:23:24;99086.59;;;24.90;51.50
15604;BME280;7902;49.042;9.092;2022-08-25T07:25:51;99081.63;;;25.01;50.87
15604;BME280;7902;49.042;9.092;2022-08-25T07:28:17;99078.13;;;25.00;51.05
15604;BME280;7902;49.042;9.092;2022-08-25T07:30:44;99081.66;;;25.14;50.12
15604;BME280;7902;49.042;9.092;2022-08-25T07:33:10;99082.06;;;25.11;50.82
15604;BME280;7902;49.042;9.092;2022-08-25T07:35:36;99071.53;;;25.16;50.43
15604;BME280;7902;49.042;9.092;2022-08-25T07:38:03;99062.84;;;25.20;50.58
15604;BME280;7902;49.042;9.092;2022-08-25T07:40:35;99063.88;;;25.26;50.78
15604;BME280;7902;49.042;9.092;2022-08-25T07:43:04;99069.47;;;25.31;50.63
15604;BME280;7902;49.042;9.092;2022-08-25T07:45:34;99071.94;;;25.39;50.24
15604;BME280;7902;49.042;9.092;2022-08-25T07:48:04;99073.19;;;25.43;50.49
15604;BME280;7902;49.042;9.092;2022-08-25T07:50:31;99070.72;;;25.48;51.08
15604;BME280;7902;49.042;9.092;2022-08-25T07:52:57;99079.41;;;25.57;50.73
15604;BME280;7902;49.042;9.092;2022-08-25T07:55:25;99071.34;;;25.63;50.13
15604;BME280;7902;49.042;9.092;2022-08-25T07:57:53;99081.09;;;25.64;50.77
15604;BME280;7902;49.042;9.092;2022-08-25T08:00:19;99079.63;;;25.68;49.94
15604;BME280;7902;49.042;9.092;2022-08-25T08:02:45;99081.06;;;25.71;50.72
15604;BME280;7902;49.042;9.092;2022-08-25T08:05:13;99079.84;;;25.73;49.47
15604;BME280;7902;49.042;9.092;2022-08-25T08:07:39;99077.75;;;25.82;49.93
15604;BME280;7902;49.042;9.092;2022-08-25T08:10:08;99074.63;;;25.85;49.91
15604;BME280;7902;49.042;9.092;2022-08-25T08:12:35;99071.94;;;25.92;50.37
15604;BME280;7902;49.042;9.092;2022-08-25T08:15:02;99081.03;;;25.91;50.49
15604;BME280;7902;49.042;9.092;2022-08-25T08:17:28;99081.03;;;25.91;50.63
15604;BME280;7902;49.042;9.092;2022-08-25T08:19:57;99080.22;;;25.97;50.28
15604;BME280;7902;49.042;9.092;2022-08-25T08:22:23;99080.00;;;25.98;50.35
15604;BME280;7902;49.042;9.092;2022-08-25T08:24:49;99079.78;;;26.13;50.50
15604;BME280;7902;49.042;9.092;2022-08-25T08:27:15;99071.69;;;26.13;49.96
15604;BME280;7902;49.042;9.092;2022-08-25T08:29:41;99071.47;;;26.21;50.13
15604;BME280;7902;49.042;9.092;2022-08-25T08:32:09;99064.22;;;26.15;50.93
15604;BME280;7902;49.042;9.092;2022-08-25T08:34:39;99075.22;;;26.07;51.14
15604;BME280;7902;49.042;9.092;2022-08-25T08:37:07;99070.22;;;26.30;49.58
15604;BME280;7902;49.042;9.092;2022-08-25T08:39:33;99068.56;;;26.29;50.05
15604;BME280;7902;49.042;9.092;2022-08-25T08:52:15;99069.38;;;26.36;50.58
15604;BME280;7902;49.042;9.092;2022-08-25T08:54:44;99060.41;;;26.42;50.31
15604;BME280;7902;49.042;9.092;2022-08-25T08:57:14;99051.06;;;26.51;49.28
15604;BME280;7902;49.042;9.092;2022-08-25T08:59:52;99046.31;;;26.47;49.69
15604;BME280;7902;49.042;9.092;2022-08-25T09:05:16;99041.94;;;26.52;49.54
15604;BME280;7902;49.042;9.092;2022-08-25T09:07:48;99052.25;;;26.62;48.77
15604;BME280;7902;49.042;9.092;2022-08-25T09:10:16;99042.50;;;26.61;48.10
15604;BME280;7902;49.042;9.092;2022-08-25T09:12:59;99040.88;;;26.60;47.84
15604;BME280;7902;49.042;9.092;2022-08-25T09:15:31;99039.00;;;26.60;48.47
15604;BME280;7902;49.042;9.092;2022-08-25T09:19:22;99041.44;;;26.69;47.97
15604;BME280;7902;49.042;9.092;2022-08-25T09:32:27;99022.94;;;26.79;47.26
15604;BME280;7902;49.042;9.092;2022-08-25T09:34:55;99024.38;;;26.81;47.93
15604;BME280;7902;49.042;9.092;2022-08-25T09:37:22;99011.94;;;26.87;47.37
15604;BME280;7902;49.042;9.092;2022-08-25T09:39:48;99006.09;;;26.90;47.86
15604;BME280;7902;49.042;9.092;2022-08-25T09:42:16;99006.22;;;27.01;47.06
15604;BME280;7902;49.042;9.092;2022-08-25T09:44:45;98996.28;;;27.02;46.82
15604;BME280;7902;49.042;9.092;2022-08-25T09:55:20;98991.22;;;27.12;46.84
15604;BME280;7902;49.042;9.092;2022-08-25T09:57:49;98986.88;;;27.11;46.58
15604;BME280;7902;49.042;9.092;2022-08-25T10:00:20;98991.00;;;27.14;46.21
15604;BME280;7902;49.042;9.092;2022-08-25T10:03:19;98982.69;;;27.15;45.89
15604;BME280;7902;49.042;9.092;2022-08-25T10:11:11;98978.50;;;27.19;46.02
15604;BME280;7902;49.042;9.092;2022-08-25T10:13:44;98967.28;;;27.22;45.90
15604;BME280;7902;49.042;9.092;2022-08-25T10:16:26;98966.84;;;27.25;45.96
15604;BME280;7902;49.042;9.092;2022-08-25T10:21:26;98968.94;;;27.23;45.64
15604;BME280;7902;49.042;9.092;2022-08-25T10:23:52;98959.81;;;27.24;46.17
15604;BME280;7902;49.042;9.092;2022-08-25T10:26:47;98958.91;;;27.30;45.49
15604;BME280;7902;49.042;9.092;2022-08-25T10:31:55;98948.81;;;27.26;45.68
15604;BME280;7902;49.042;9.092;2022-08-25T10:40:24;98944.78;;;27.35;45.75
15604;BME280;7902;49.042;9.092;2022-08-25T10:43:12;98938.31;;;27.36;45.94
15604;BME280;7902;49.042;9.092;2022-08-25T10:46:00;98939.28;;;27.41;45.60
15604;BME280;7902;49.042;9.092;2022-08-25T10:54:23;98932.59;;;27.69;44.78
15604;BME280;7902;49.042;9.092;2022-08-25T10:59:51;98922.03;;;27.67;44.60
15604;BME280;7902;49.042;9.092;2022-08-25T11:02:25;98913.72;;;27.69;44.75
15604;BME280;7902;49.042;9.092;2022-08-25T11:05:07;98912.91;;;27.68;45.16
15604;BME280;7902;49.042;9.092;2022-08-25T11:07:37;98895.91;;;27.68;45.46
15604;BME280;7902;49.042;9.092;2022-08-25T11:10:10;98898.13;;;27.71;44.42
15604;BME280;7902;49.042;9.092;2022-08-25T11:12:42;98901.44;;;27.73;45.08
15604;BME280;7902;49.042;9.092;2022-08-25T11:15:24;98898.13;;;27.71;44.61
15604;BME280;7902;49.042;9.092;2022-08-25T11:17:55;98892.06;;;27.75;44.68
15604;BME280;7902;49.042;9.092;2022-08-25T11:20:32;98888.97;;;27.90;44.15
15604;BME280;7902;49.042;9.092;2022-08-25T11:23:20;98893.03;;;27.81;44.56
15604;BME280;7902;49.042;9.092;2022-08-25T11:25:52;98881.38;;;27.99;44.00
15604;BME280;7902;49.042;9.092;2022-08-25T11:31:09;98884.69;;;28.01;44.18
15604;BME280;7902;49.042;9.092;2022-08-25T11:33:36;98890.50;;;27.98;44.23
15604;BME280;7902;49.042;9.092;2022-08-25T11:36:27;98873.34;;;28.10;44.17
15604;BME280;7902;49.042;9.092;2022-08-25T11:39:10;98887.06;;;28.09;44.42
15604;BME280;7902;49.042;9.092;2022-08-25T11:44:57;98886.69;;;28.05;44.51
15604;BME280;7902;49.042;9.092;2022-08-25T11:50:53;98882.28;;;28.11;44.16
15604;BME280;7902;49.042;9.092;2022-08-25T11:53:33;98864.63;;;28.08;44.01
15604;BME280;7902;49.042;9.092;2022-08-25T11:56:06;98874.25;;;28.04;44.03
15604;BME280;7902;49.042;9.092;2022-08-25T11:58:50;98876.03;;;28.10;44.16
15604;BME280;7902;49.042;9.092;2022-08-25T12:12:35;98864.03;;;28.24;44.20
15604;BME280;7902;49.042;9.092;2022-08-25T12:15:21;98863.56;;;28.27;43.70
15604;BME280;7902;49.042;9.092;2022-08-25T12:18:11;98873.06;;;28.30;44.13
15604;BME280;7902;49.042;9.092;2022-08-25T12:23:35;98865.03;;;28.53;43.14
15604;BME280;7902;49.042;9.092;2022-08-25T12:28:52;98859.38;;;28.55;43.49
15604;BME280;7902;49.042;9.092;2022-08-25T12:36:55;98844.00;;;28.44;43.64
15604;BME280;7902;49.042;9.092;2022-08-25T12:39:28;98849.97;;;28.46;43.52
15604;BME280;7902;49.042;9.092;2022-08-25T12:42:06;98852.56;;;28.52;43.28
15604;BME280;7902;49.042;9.092;2022-08-25T12:44:45;98838.72;;;28.49;43.45
15604;BME280;7902;49.042;9.092;2022-08-25T12:49:45;98840.72;;;28.65;43.42
15604;BME280;7902;49.042;9.092;2022-08-25T12:52:17;98836.84;;;28.61;43.42
15604;BME280;7902;49.042;9.092;2022-08-25T12:54:57;98841.66;;;28.70;42.59
15604;BME280;7902;49.042;9.092;2022-08-25T12:57:45;98835.59;;;28.75;43.07
15604;BME280;7902;49.042;9.092;2022-08-25T13:00:23;98827.25;;;28.88;42.53
15604;BME280;7902;49.042;9.092;2022-08-25T13:03:14;98836.41;;;28.87;42.48
15604;BME280;7902;49.042;9.092;2022-08-25T13:06:04;98824.78;;;28.75;42.76
15604;BME280;7902;49.042;9.092;2022-08-25T13:11:26;98828.31;;;28.75;42.57
15604;BME280;7902;49.042;9.092;2022-08-25T13:14:01;98829.38;;;28.86;42.29
15604;BME280;7902;49.042;9.092;2022-08-25T13:16:30;98826.66;;;28.86;42.57
15604;BME280;7902;49.042;9.092;2022-08-25T13:19:01;98828.16;;;29.05;42.20
15604;BME280;7902;49.042;9.092;2022-08-25T13:21:32;98813.25;;;29.03;42.51
15604;BME280;7902;49.042;9.092;2022-08-25T13:23:59;98810.78;;;29.01;42.21
15604;BME280;7902;49.042;9.092;2022-08-25T13:26:36;98815.72;;;28.93;42.62
15604;BME280;7902;49.042;9.092;2022-08-25T13:31:32;98815.34;;;29.01;42.52
15604;BME280;7902;49.042;9.092;2022-08-25T13:34:02;98813.03;;;29.04;42.31
15604;BME280;7902;49.042;9.092;2022-08-25T13:36:31;98808.19;;;29.06;42.30
15604;BME280;7902;49.042;9.092;2022-08-25T13:39:21;98808.56;;;28.98;42.43
15604;BME280;7902;49.042;9.092;2022-08-25T13:41:52;98807.97;;;28.96;42.92
15604;BME280;7902;49.042;9.092;2022-08-25T13:44:21;98807.84;;;29.03;42.33
15604;BME280;7902;49.042;9.092;2022-08-25T13:47:04;98804.75;;;29.11;41.60
15604;BME280;7902;49.042;9.092;2022-08-25T13:49:30;98795.03;;;28.98;42.38
15604;BME280;7902;49.042;9.092;2022-08-25T13:51:56;98798.91;;;29.02;42.29
15604;BME280;7902;49.042;9.092;2022-08-25T13:54:42;98791.63;;;29.03;42.22
15604;BME280;7902;49.042;9.092;2022-08-25T13:57:21;98781.25;;;29.11;42.19
15604;BME280;7902;49.042;9.092;2022-08-25T13:59:53;98787.03;;;29.03;42.33
15604;BME280;7902;49.042;9.092;2022-08-25T14:02:44;98779.38;;;29.12;42.28
15604;BME280;7902;49.042;9.092;2022-08-25T14:05:12;98773.16;;;29.11;42.17
15604;BME280;7902;49.042;9.092;2022-08-25T14:07:39;98770.00;;;29.14;42.21
15604;BME280;7902;49.042;9.092;2022-08-25T14:10:28;98778.53;;;29.23;41.60
15604;BME280;7902;49.042;9.092;2022-08-25T14:13:27;98773.38;;;29.21;42.24
15604;BME280;7902;49.042;9.092;2022-08-25T14:15:53;98779.94;;;29.26;41.65
15604;BME280;7902;49.042;9.092;2022-08-25T14:18:21;98774.19;;;29.22;41.78
15604;BME280;7902;49.042;9.092;2022-08-25T14:20:53;98775.13;;;29.28;41.76
15604;BME280;7902;49.042;9.092;2022-08-25T14:23:23;98778.09;;;29.14;42.05
15604;BME280;7902;49.042;9.092;2022-08-25T14:25:53;98773.38;;;29.21;41.99
15604;BME280;7902;49.042;9.092;2022-08-25T14:28:23;98765.25;;;29.21;41.80
15604;BME280;7902;49.042;9.092;2022-08-25T14:30:55;98768.44;;;29.18;42.08
15604;BME280;7902;49.042;9.092;2022-08-25T14:33:32;98765.75;;;29.18;41.70
15604;BME280;7902;49.042;9.092;2022-08-25T14:36:00;98765.38;;;29.15;42.18
15604;BME280;7902;49.042;9.092;2022-08-25T14:38:27;98761.63;;;29.16;42.28
15604;BME280;7902;49.042;9.092;2022-08-25T14:40:53;98762.22;;;29.18;42.07
15604;BME280;7902;49.042;9.092;2022-08-25T14:43:19;98755.88;;;29.12;42.12
15604;BME280;7902;49.042;9.092;2022-08-25T14:45:46;98755.63;;;29.14;42.12
15604;BME280;7902;49.042;9.092;2022-08-25T14:48:20;98749.88;;;29.10;41.84
15604;BME280;7902;49.042;9.092;2022-08-25T14:50:49;98754.44;;;29.33;40.63
15604;BME280;7902;49.042;9.092;2022-08-25T14:53:15;98749.84;;;29.62;39.52
15604;BME280;7902;49.042;9.092;2022-08-25T14:55:41;98749.84;;;29.90;39.05
15604;BME280;7902;49.042;9.092;2022-08-25T14:58:07;98745.09;;;29.97;39.19
15604;BME280;7902;49.042;9.092;2022-08-25T15:00:36;98740.91;;;30.23;37.93
15604;BME280;7902;49.042;9.092;2022-08-25T15:03:04;98737.06;;;30.36;38.18
15604;BME280;7902;49.042;9.092;2022-08-25T15:05:30;98733.00;;;30.50;37.88
15604;BME280;7902;49.042;9.092;2022-08-25T15:07:56;98733.88;;;30.56;37.52
15604;BME280;7902;49.042;9.092;2022-08-25T15:10:41;98731.22;;;30.77;37.20